Terminal Aerodrome Forecast
Issued by NWS Blacksburg, VA

Home | Current Version | Previous Version | Text Only | Print | Product List | Glossary On
Versions: 1 2 3 4 5 6 7 8 9 10 11 12 13 14 15 16 17 18 19 20 21 22 23 24 25 26 27 28 29 30 31 32 33 34
000
FTUS41 KRNK 021135
TAFBLF
TAF
KBLF 021135Z 0212/0312 25007KT P6SM SCT035 BKN100 OVC250
     FM021430 25012G20KT P6SM SCT040 BKN100 OVC250
     FM021900 26011G19KT P6SM VCTS BKN040CB OVC100
      TEMPO 0220/0224 25015G25KT 4SM TSRA BR BKN030CB
     FM030200 28007KT P6SM VCSH SCT025 BKN045 OVC080
     FM030600 27006KT P6SM OVC025=

USA.gov is the U.S. government's official web portal to all federal, state and local government web resources and services.